Startpagina
METAR-TAF:

METAR-TAF

Vliegvelden :

Internationale luchthaven Kopenhagen Kastrup

Kopenhagen, Denemarken

breedte: 55-37N, lengte: 012-39E, hoogte: 5 m

Actueel weer

Dit bericht is 25 minuten geleden gemaakt, om 07:20 UTC
Wind 8 kt uit het oostzuidoosten
Temperatuur 8°C
Vochtigheid 100%
Druk 1016 hPa
Zicht: 2000 m
Gebroken wolken op 600 ft
lichte motregen

METAR: EKCH 210720Z 12008KT 2000 -DZ BKN006 08/08 Q1016 NOSIG

Tijdstip: 08:45 (07:45 UTC)

Verwachting

Dit bericht is 10 minuten geleden gemaakt, om 07:35 UTC
Verwachting geldig van 21 om 07 UTC tot 22 om 06 UTC
Wind 12 kt uit het oosten
Zicht: 1200 m
Gebroken wolken op 300 ft
nevel
Wijzigt naar
van 21 om 08 UTC tot 21 om 10 UTC
Zicht: 6000 m
Verspreide wolken op 600 ft
Gebroken wolken op 1000 ft
Tijdelijke
van 21 om 10 UTC tot 22 om 06 UTC
Zicht: 3000 m
Gebroken wolken op 500 ft
lichte regen, motregen, nevel

TAF: EKCH 210735Z 2107/2206 10012KT 1200 BR BKN003 BECMG 2108/2110 6000 NSW SCT006 BKN010 TEMPO 2110/2206 3000 -RADZ BR BKN005

Waarnemingen en weersverwachtingen van meer dan 4000 vliegvelden (METAR en TAF).

De beschikbare stations zijn de gele en rode punten op de kaart.

Ga met uw muis naar het station om de naam te zien.

Klik dan om waarnemingen en weersverwachtingen te zien.

kaart wijzigen: klik op de groene knoppen met een zwart kruis om in te zoomen, op de groene knop met een streepje om uit te zoomen of op de groene pijlen voor aangrenzende kaarten.


METAR-TAF: